createdAt,value
2018-04-19T00:01:10.592Z,11.06
2018-04-19T00:03:36.590Z,11.01
2018-04-19T00:06:03.401Z,10.99
2018-04-19T00:08:29.299Z,10.97
2018-04-19T00:10:55.601Z,10.97
2018-04-19T00:13:21.472Z,10.93
2018-04-19T00:15:47.459Z,10.94
2018-04-19T00:18:14.530Z,10.90
2018-04-19T00:20:40.468Z,10.88
2018-04-19T00:23:06.300Z,10.85
2018-04-19T00:25:32.215Z,10.81
2018-04-19T00:27:58.171Z,10.79
2018-04-19T00:30:24.261Z,10.78
2018-04-19T00:32:50.204Z,10.77
2018-04-19T00:35:16.068Z,10.76
2018-04-19T00:37:41.948Z,10.73
2018-04-19T00:40:08.252Z,10.71
2018-04-19T00:42:34.191Z,10.71
2018-04-19T00:45:00.067Z,10.69
2018-04-19T00:47:25.972Z,10.69
2018-04-19T00:49:51.953Z,10.65
2018-04-19T00:52:18.023Z,10.68
2018-04-19T00:54:44.313Z,10.65
2018-04-19T00:57:10.224Z,10.63
2018-04-19T00:59:36.089Z,10.61
2018-04-19T01:02:01.996Z,10.61
2018-04-19T01:04:27.963Z,10.60
2018-04-19T01:06:53.876Z,10.58
2018-04-19T01:09:20.124Z,10.54
2018-04-19T01:11:46.006Z,10.49
2018-04-19T01:14:11.963Z,10.45
2018-04-19T01:16:37.989Z,10.43
2018-04-19T01:19:03.919Z,10.43
2018-04-19T01:21:29.874Z,10.40
2018-04-19T01:23:55.799Z,10.38
2018-04-19T01:26:21.713Z,10.38
2018-04-19T01:28:47.700Z,10.37
2018-04-19T01:31:13.676Z,10.38
2018-04-19T01:33:39.563Z,10.35
2018-04-19T01:36:18.876Z,10.35
2018-04-19T01:38:44.764Z,10.31
2018-04-19T01:41:10.745Z,10.29
2018-04-19T01:43:36.765Z,10.23
2018-04-19T01:46:02.644Z,10.20
2018-04-19T01:48:28.524Z,10.19
2018-04-19T01:50:55.341Z,10.18
2018-04-19T01:53:21.307Z,10.17
2018-04-19T01:55:47.219Z,10.15
2018-04-19T01:58:13.136Z,10.15
2018-04-19T02:00:39.016Z,10.13
2018-04-19T02:03:04.894Z,10.10
2018-04-19T02:05:31.357Z,10.07
2018-04-19T02:07:57.301Z,10.04
2018-04-19T02:10:23.184Z,10.00
2018-04-19T02:12:49.092Z,9.98
2018-04-19T02:15:14.969Z,9.96
2018-04-19T02:17:40.947Z,9.95
2018-04-19T02:20:06.937Z,9.94
2018-04-19T02:22:32.835Z,9.94
2018-04-19T02:24:58.707Z,9.96
2018-04-19T02:27:24.779Z,9.95
2018-04-19T02:29:50.731Z,10.11
2018-04-19T02:32:16.656Z,10.09
2018-04-19T02:34:42.900Z,10.05
2018-04-19T02:37:08.784Z,9.99
2018-04-19T02:39:34.673Z,9.92
2018-04-19T02:42:00.710Z,9.89
2018-04-19T02:44:26.649Z,9.84
2018-04-19T02:46:52.526Z,9.85
2018-04-19T02:49:18.465Z,9.83
2018-04-19T02:51:44.324Z,9.75
2018-04-19T02:54:10.327Z,9.70
2018-04-19T02:56:36.532Z,9.69
2018-04-19T02:59:02.416Z,9.66
2018-04-19T03:01:28.281Z,9.65
2018-04-19T03:03:54.218Z,9.57
2018-04-19T03:06:20.213Z,9.55
2018-04-19T03:08:46.159Z,9.57
2018-04-19T03:11:12.066Z,9.55
2018-04-19T03:13:37.932Z,9.51
2018-04-19T03:16:03.830Z,9.50
2018-04-19T03:18:29.869Z,9.51
2018-04-19T03:20:55.811Z,9.41
2018-04-19T03:23:21.696Z,9.34
2018-04-19T03:25:47.594Z,9.32
2018-04-19T03:28:14.227Z,9.33
2018-04-19T03:30:40.180Z,9.29
2018-04-19T03:33:06.885Z,9.39
2018-04-19T03:35:32.809Z,9.31
2018-04-19T03:37:58.711Z,9.30
2018-04-19T03:40:24.632Z,9.25
2018-04-19T03:42:50.592Z,9.22
2018-04-19T03:45:16.516Z,9.26
2018-04-19T03:47:42.785Z,9.21
2018-04-19T03:50:08.689Z,9.20
2018-04-19T03:52:34.579Z,9.20
2018-04-19T03:55:00.575Z,9.20
2018-04-19T03:57:26.520Z,9.21
2018-04-19T03:59:52.418Z,9.20
2018-04-19T04:02:18.345Z,9.17
2018-04-19T04:04:44.207Z,9.18
2018-04-19T04:07:10.139Z,9.20
2018-04-19T04:09:36.099Z,9.22
2018-04-19T04:12:01.974Z,9.15
2018-04-19T04:14:27.903Z,9.11
2018-04-19T04:17:06.187Z,9.11
2018-04-19T04:19:45.701Z,9.14
2018-04-19T04:22:23.977Z,9.18
2018-04-19T04:24:51.645Z,9.20
2018-04-19T04:27:17.515Z,9.18
2018-04-19T04:29:43.521Z,9.15
2018-04-19T04:32:09.440Z,9.21
2018-04-19T04:34:35.336Z,9.27
2018-04-19T04:37:01.269Z,9.31
2018-04-19T04:39:27.157Z,9.32
2018-04-19T04:41:53.171Z,9.38
2018-04-19T04:44:19.205Z,9.43
2018-04-19T04:46:45.107Z,9.49
2018-04-19T04:49:11.019Z,9.56
2018-04-19T04:51:36.999Z,9.66
2018-04-19T04:54:03.008Z,9.72
2018-04-19T04:56:28.915Z,9.75
2018-04-19T04:58:54.838Z,9.82
2018-04-19T05:01:20.712Z,9.86
2018-04-19T05:03:46.636Z,9.92
2018-04-19T05:06:12.730Z,10.00
2018-04-19T05:08:39.642Z,10.06
2018-04-19T05:11:05.503Z,10.17
2018-04-19T05:13:31.421Z,10.28
2018-04-19T05:15:57.327Z,10.40
2018-04-19T05:18:23.354Z,10.49
2018-04-19T05:20:49.312Z,10.58
2018-04-19T05:23:15.252Z,10.70
2018-04-19T05:25:41.114Z,10.83
2018-04-19T05:28:07.055Z,10.97
2018-04-19T05:30:33.847Z,11.09
2018-04-19T05:32:59.784Z,11.26
2018-04-19T05:35:25.695Z,11.37
2018-04-19T05:37:51.574Z,11.53
2018-04-19T05:40:17.430Z,11.68
2018-04-19T05:42:43.416Z,11.82
2018-04-19T05:45:09.356Z,11.99
2018-04-19T05:47:35.227Z,12.12
2018-04-19T05:50:01.148Z,12.25
2018-04-19T05:52:27.026Z,12.41
2018-04-19T05:54:52.991Z,12.56
2018-04-19T05:57:18.980Z,12.66
2018-04-19T05:59:44.856Z,12.75
2018-04-19T06:02:10.742Z,12.90
2018-04-19T06:04:36.652Z,13.00
2018-04-19T06:07:03.356Z,13.40
2018-04-19T06:09:29.316Z,13.68
2018-04-19T06:11:55.622Z,13.78
2018-04-19T06:14:21.491Z,13.96
2018-04-19T06:16:47.366Z,14.08
2018-04-19T06:19:13.364Z,14.18
2018-04-19T06:21:39.300Z,14.37
2018-04-19T06:24:05.179Z,14.55
2018-04-19T06:26:31.128Z,14.72
2018-04-19T06:28:57.011Z,14.87
2018-04-19T06:31:22.984Z,15.08
2018-04-19T06:33:48.951Z,15.20
2018-04-19T06:36:14.816Z,15.25
2018-04-19T06:38:40.686Z,15.44
2018-04-19T06:41:06.626Z,15.57
2018-04-19T06:43:32.593Z,15.64
2018-04-19T06:45:58.532Z,15.88
2018-04-19T06:48:24.476Z,15.85
2018-04-19T06:50:50.365Z,16.13
2018-04-19T06:53:16.239Z,16.28
2018-04-19T06:55:42.223Z,16.52
2018-04-19T06:58:08.155Z,16.54
2018-04-19T07:00:34.012Z,16.79
2018-04-19T07:03:00.228Z,16.94
2018-04-19T07:05:26.099Z,17.00
2018-04-19T07:07:52.055Z,17.07
2018-04-19T07:10:18.040Z,17.32
2018-04-19T07:12:43.901Z,17.48
2018-04-19T07:15:09.766Z,17.59
2018-04-19T07:17:35.681Z,17.65
2018-04-19T07:20:01.651Z,17.66
2018-04-19T07:22:27.680Z,17.93
2018-04-19T07:24:54.676Z,18.03
2018-04-19T07:27:20.587Z,18.09
2018-04-19T07:29:46.791Z,18.24
2018-04-19T07:32:13.885Z,18.46
2018-04-19T07:34:39.778Z,18.63
2018-04-19T07:37:06.084Z,18.69
2018-04-19T07:39:31.999Z,18.70
2018-04-19T07:41:58.182Z,18.82
2018-04-19T07:44:24.149Z,18.83
2018-04-19T07:46:50.096Z,18.75
2018-04-19T07:49:16.396Z,18.99
2018-04-19T07:51:42.324Z,19.21
2018-04-19T07:54:08.256Z,19.18
2018-04-19T07:56:34.209Z,19.36
2018-04-19T07:59:00.558Z,19.42
2018-04-19T08:01:27.083Z,19.53
2018-04-19T08:03:53.242Z,19.57
2018-04-19T08:06:19.139Z,19.83
2018-04-19T08:08:45.162Z,20.08
2018-04-19T08:11:11.144Z,20.20
2018-04-19T08:13:36.997Z,20.46
2018-04-19T08:16:02.948Z,20.49
2018-04-19T08:18:28.839Z,20.44
2018-04-19T08:20:54.800Z,20.77
2018-04-19T08:23:21.073Z,20.86
2018-04-19T08:25:46.944Z,21.02
2018-04-19T08:28:12.824Z,21.34
2018-04-19T08:30:38.740Z,21.83
2018-04-19T08:33:04.705Z,21.33
2018-04-19T08:35:30.683Z,21.52
2018-04-19T08:37:56.983Z,21.67
2018-04-19T08:40:23.161Z,21.99
2018-04-19T08:42:49.062Z,21.39
2018-04-19T08:45:15.381Z,21.70
2018-04-19T08:47:41.318Z,21.66
2018-04-19T08:50:07.184Z,21.73
2018-04-19T08:52:33.123Z,21.83
2018-04-19T08:54:59.032Z,22.41
2018-04-19T08:57:25.007Z,22.43
2018-04-19T08:59:51.000Z,22.22
2018-04-19T09:02:16.858Z,22.85
2018-04-19T09:04:43.797Z,22.52
2018-04-19T09:07:09.707Z,22.98
2018-04-19T09:09:35.743Z,22.90
2018-04-19T09:12:01.670Z,22.91
2018-04-19T09:14:27.592Z,22.96
2018-04-19T09:16:53.536Z,22.91
2018-04-19T09:22:08.440Z,22.59
2018-04-19T09:24:34.308Z,23.54
2018-04-19T09:27:00.176Z,24.00
2018-04-19T09:29:26.091Z,23.60
2018-04-19T09:31:51.971Z,23.87
2018-04-19T09:34:17.979Z,23.99
2018-04-19T09:36:43.899Z,23.79
2018-04-19T09:39:09.763Z,23.89
2018-04-19T09:41:35.645Z,24.25
2018-04-19T09:44:01.564Z,23.95
2018-04-19T09:46:27.572Z,24.16
2018-04-19T09:48:53.445Z,24.49
2018-04-19T09:51:22.443Z,24.45
2018-04-19T09:53:48.386Z,24.82
2018-04-19T09:56:14.223Z,24.26
2018-04-19T09:58:40.308Z,24.43
2018-04-19T10:01:08.123Z,25.35
2018-04-19T10:03:40.153Z,25.28
2018-04-19T10:06:07.980Z,25.03
2018-04-19T10:08:34.927Z,25.04
2018-04-19T10:11:00.987Z,24.93
2018-04-19T10:13:26.875Z,25.93
2018-04-19T10:15:52.781Z,25.57
2018-04-19T10:18:18.715Z,24.90
2018-04-19T10:20:44.583Z,24.62
2018-04-19T10:23:10.599Z,24.59
2018-04-19T10:25:36.561Z,25.55
2018-04-19T10:28:02.423Z,25.40
2018-04-19T10:30:29.157Z,26.29
2018-04-19T10:32:55.086Z,26.65
2018-04-19T10:35:21.096Z,27.18
2018-04-19T10:37:46.957Z,25.41
2018-04-19T10:40:12.877Z,25.32
2018-04-19T10:42:38.755Z,25.90
2018-04-19T10:45:04.645Z,26.42
2018-04-19T10:47:30.700Z,27.00
2018-04-19T10:49:56.819Z,27.66
2018-04-19T10:52:22.689Z,27.87
2018-04-19T10:54:48.589Z,27.76
2018-04-19T10:57:14.456Z,27.50
2018-04-19T10:59:41.278Z,26.95
2018-04-19T11:02:07.198Z,26.77
2018-04-19T11:04:33.099Z,27.48
2018-04-19T11:06:59.011Z,27.90
2018-04-19T11:09:27.007Z,28.41
2018-04-19T11:11:53.036Z,28.28
2018-04-19T11:14:19.956Z,27.73
2018-04-19T11:16:45.876Z,28.49
2018-04-19T11:19:11.756Z,28.13
2018-04-19T11:21:37.736Z,27.63
2018-04-19T11:24:03.815Z,28.32
2018-04-19T11:26:29.750Z,28.59
2018-04-19T11:28:55.629Z,28.47
2018-04-19T11:31:21.681Z,28.59
2018-04-19T11:33:48.671Z,28.83
2018-04-19T11:36:14.806Z,28.74
2018-04-19T11:38:41.168Z,29.23
2018-04-19T11:41:07.036Z,29.08
2018-04-19T11:43:32.956Z,29.40
2018-04-19T11:45:58.859Z,27.19
2018-04-19T11:48:24.876Z,26.40
2018-04-19T11:50:54.683Z,26.91
2018-04-19T11:53:20.595Z,25.81
2018-04-19T11:55:46.458Z,26.04
2018-04-19T11:58:12.326Z,26.70
2018-04-19T12:00:38.386Z,27.14
2018-04-19T12:03:04.270Z,27.05
2018-04-19T12:05:30.178Z,27.19
2018-04-19T12:07:56.095Z,26.99
2018-04-19T12:10:21.984Z,26.92
2018-04-19T12:12:48.025Z,26.66
2018-04-19T12:15:13.981Z,26.24
2018-04-19T12:17:39.855Z,25.84
2018-04-19T12:20:05.762Z,25.98
2018-04-19T12:22:31.673Z,26.21
2018-04-19T12:24:57.921Z,25.35
2018-04-19T12:27:23.811Z,25.65
2018-04-19T12:29:50.664Z,25.47
2018-04-19T12:32:16.567Z,25.05
2018-04-19T12:34:42.464Z,24.55
2018-04-19T12:37:08.607Z,24.46
2018-04-19T12:39:34.489Z,24.69
2018-04-19T12:42:00.376Z,24.50
2018-04-19T12:44:26.295Z,24.81
2018-04-19T12:46:52.179Z,24.58
2018-04-19T12:49:18.199Z,24.86
2018-04-19T12:51:44.100Z,24.14
2018-04-19T12:54:10.044Z,24.42
2018-04-19T12:56:35.915Z,24.39
2018-04-19T12:59:01.831Z,24.09
2018-04-19T13:01:28.613Z,23.94
2018-04-19T13:03:54.475Z,24.37
2018-04-19T13:06:20.387Z,24.64
2018-04-19T13:08:46.263Z,24.77
2018-04-19T13:11:12.183Z,24.78
2018-04-19T13:13:38.256Z,24.25
2018-04-19T13:16:04.156Z,24.58
2018-04-19T13:18:30.035Z,24.81
2018-04-19T13:20:55.992Z,24.91
2018-04-19T13:23:21.868Z,25.16
2018-04-19T13:25:48.040Z,24.77
2018-04-19T13:28:13.893Z,24.93
2018-04-19T13:30:39.812Z,24.68
2018-04-19T13:33:05.680Z,24.51
2018-04-19T13:35:31.646Z,24.43
2018-04-19T13:37:57.671Z,24.49
2018-04-19T13:40:24.649Z,24.36
2018-04-19T13:42:50.979Z,24.14
2018-04-19T13:45:16.862Z,24.42
2018-04-19T13:47:42.759Z,24.11
2018-04-19T13:50:08.843Z,24.24
2018-04-19T13:52:34.724Z,24.49
2018-04-19T13:55:00.638Z,24.80
2018-04-19T13:57:26.583Z,24.97
2018-04-19T13:59:52.525Z,25.03
2018-04-19T14:02:18.540Z,25.16
2018-04-19T14:04:44.439Z,24.49
2018-04-19T14:07:11.231Z,24.57
2018-04-19T14:09:37.139Z,25.12
2018-04-19T14:12:03.064Z,24.43
2018-04-19T14:14:29.552Z,24.51
2018-04-19T14:16:55.436Z,24.66
2018-04-19T14:19:21.357Z,24.78
2018-04-19T14:21:47.237Z,24.82
2018-04-19T14:24:13.147Z,24.99
2018-04-19T14:26:39.209Z,24.82
2018-04-19T14:29:05.072Z,24.84
2018-04-19T14:31:30.978Z,24.79
2018-04-19T14:33:56.896Z,24.59
2018-04-19T14:36:22.772Z,24.78
2018-04-19T14:38:48.808Z,24.49
2018-04-19T14:41:14.881Z,24.82
2018-04-19T14:43:40.859Z,24.60
2018-04-19T14:46:06.765Z,24.88
2018-04-19T14:48:32.677Z,25.01
2018-04-19T14:50:58.722Z,24.95
2018-04-19T14:53:24.585Z,24.60
2018-04-19T14:55:50.495Z,24.66
2018-04-19T14:58:16.358Z,24.76
2018-04-19T15:00:42.284Z,24.75
2018-04-19T15:03:08.647Z,24.60
2018-04-19T15:05:34.544Z,24.72
2018-04-19T15:08:00.428Z,24.75
2018-04-19T15:10:26.364Z,24.80
2018-04-19T15:12:52.286Z,24.96
2018-04-19T15:15:18.323Z,25.12
2018-04-19T15:17:44.230Z,25.17
2018-04-19T15:20:10.101Z,25.12
2018-04-19T15:22:35.979Z,24.61
2018-04-19T15:25:01.934Z,24.98
2018-04-19T15:27:27.933Z,24.82
2018-04-19T15:29:53.829Z,25.14
2018-04-19T15:32:19.798Z,25.10
2018-04-19T15:34:45.692Z,25.31
2018-04-19T15:37:11.559Z,24.84
2018-04-19T15:39:37.640Z,24.23
2018-04-19T15:42:03.517Z,23.89
2018-04-19T15:44:29.408Z,23.65
2018-04-19T15:46:55.331Z,24.10
2018-04-19T15:49:21.236Z,24.01
2018-04-19T15:51:47.243Z,24.29
2018-04-19T15:54:13.156Z,24.18
2018-04-19T15:56:39.053Z,24.42
2018-04-19T15:59:04.952Z,24.33
2018-04-19T16:01:30.896Z,24.71
2018-04-19T16:03:56.895Z,24.48
2018-04-19T16:06:22.768Z,24.56
2018-04-19T16:08:48.705Z,24.79
2018-04-19T16:11:14.656Z,24.74
2018-04-19T16:13:40.502Z,24.77
2018-04-19T16:16:06.588Z,24.75
2018-04-19T16:18:32.447Z,24.90
2018-04-19T16:20:59.395Z,24.77
2018-04-19T16:23:25.293Z,24.81
2018-04-19T16:25:51.180Z,24.75
2018-04-19T16:28:17.194Z,24.75
2018-04-19T16:30:43.106Z,24.68
2018-04-19T16:33:08.987Z,24.60
2018-04-19T16:35:34.884Z,24.62
2018-04-19T16:38:01.107Z,24.26
2018-04-19T16:40:27.188Z,24.26
2018-04-19T16:42:53.044Z,24.19
2018-04-19T16:45:19.001Z,23.85
2018-04-19T16:47:44.871Z,23.77
2018-04-19T16:50:10.781Z,23.37
2018-04-19T16:52:36.850Z,23.38
2018-04-19T16:55:02.752Z,23.34
2018-04-19T16:57:29.701Z,23.19
2018-04-19T16:59:55.617Z,22.87
2018-04-19T17:02:21.505Z,22.89
2018-04-19T17:04:47.528Z,22.87
2018-04-19T17:07:13.455Z,22.70
2018-04-19T17:09:39.355Z,22.57
2018-04-19T17:12:05.247Z,22.39
2018-04-19T17:14:31.168Z,22.28
2018-04-19T17:16:57.201Z,22.17
2018-04-19T17:19:23.109Z,22.05
2018-04-19T17:21:49.098Z,21.92
2018-04-19T17:24:14.961Z,21.82
2018-04-19T17:26:40.856Z,21.72
2018-04-19T17:29:07.748Z,21.60
2018-04-19T17:31:33.682Z,21.48
2018-04-19T17:33:59.577Z,21.35
2018-04-19T17:36:25.484Z,21.21
2018-04-19T17:38:52.370Z,21.08
2018-04-19T17:41:18.423Z,20.94
2018-04-19T17:43:44.359Z,20.82
2018-04-19T17:46:10.233Z,20.70
2018-04-19T17:48:36.122Z,20.57
2018-04-19T17:51:02.057Z,20.45
2018-04-19T17:53:28.088Z,20.30
2018-04-19T17:55:53.949Z,20.15
2018-04-19T17:58:19.851Z,20.03
2018-04-19T18:00:45.782Z,19.91
2018-04-19T18:03:11.655Z,19.75
2018-04-19T18:05:37.736Z,19.59
2018-04-19T18:08:03.610Z,19.43
2018-04-19T18:10:29.485Z,19.28
2018-04-19T18:12:55.771Z,19.13
2018-04-19T18:15:21.655Z,19.00
2018-04-19T18:17:47.660Z,18.89
2018-04-19T18:20:14.648Z,18.77
2018-04-19T18:22:40.525Z,18.66
2018-04-19T18:25:06.412Z,18.53
2018-04-19T18:27:32.339Z,18.46
2018-04-19T18:29:58.331Z,18.37
2018-04-19T18:32:24.200Z,18.31
2018-04-19T18:34:50.123Z,18.22
2018-04-19T18:37:16.007Z,18.29
2018-04-19T18:39:41.884Z,18.27
2018-04-19T18:42:07.950Z,18.29
2018-04-19T18:44:33.927Z,18.19
2018-04-19T18:46:59.787Z,18.09
2018-04-19T18:49:26.305Z,17.98
2018-04-19T18:51:52.184Z,17.90
2018-04-19T18:54:18.320Z,17.85
2018-04-19T18:56:44.251Z,17.76
2018-04-19T18:59:10.145Z,17.72
2018-04-19T19:01:36.560Z,17.66
2018-04-19T19:04:02.652Z,17.60
2018-04-19T19:06:29.607Z,17.57
2018-04-19T19:08:55.497Z,17.52
2018-04-19T19:11:21.651Z,17.43
2018-04-19T19:13:47.617Z,17.41
2018-04-19T19:16:13.505Z,17.38
2018-04-19T19:18:52.200Z,17.34
2018-04-19T19:21:18.199Z,17.31
2018-04-19T19:23:44.060Z,17.27
2018-04-19T19:26:09.983Z,17.23
2018-04-19T19:28:35.968Z,17.20
2018-04-19T19:31:02.572Z,17.19
2018-04-19T19:33:28.504Z,17.15
2018-04-19T19:35:55.190Z,17.10
2018-04-19T19:38:21.146Z,17.06
2018-04-19T19:40:47.053Z,17.00
2018-04-19T19:43:13.068Z,16.95
2018-04-19T19:45:39.148Z,16.88
2018-04-19T19:48:05.133Z,16.84
2018-04-19T19:50:31.011Z,16.80
2018-04-19T19:52:56.922Z,16.76
2018-04-19T19:55:23.045Z,16.73
2018-04-19T19:57:48.900Z,16.65
2018-04-19T20:00:14.783Z,16.58
2018-04-19T20:02:40.701Z,16.53
2018-04-19T20:05:06.581Z,16.44
2018-04-19T20:07:32.578Z,16.39
2018-04-19T20:09:58.516Z,16.35
2018-04-19T20:12:24.391Z,16.26
2018-04-19T20:14:50.263Z,16.19
2018-04-19T20:17:16.205Z,16.10
2018-04-19T20:19:42.244Z,16.04
2018-04-19T20:22:08.131Z,15.98
2018-04-19T20:24:34.036Z,15.91
2018-04-19T20:26:59.932Z,15.87
2018-04-19T20:29:25.808Z,15.84
2018-04-19T20:31:51.897Z,15.80
2018-04-19T20:34:17.781Z,15.78
2018-04-19T20:36:43.666Z,15.78
2018-04-19T20:39:09.580Z,15.73
2018-04-19T20:41:36.513Z,15.67
2018-04-19T20:44:02.552Z,15.60
2018-04-19T20:46:28.472Z,15.57
2018-04-19T20:48:54.347Z,15.55
2018-04-19T20:51:20.207Z,15.53
2018-04-19T20:53:46.153Z,15.52
2018-04-19T20:56:12.192Z,15.52
2018-04-19T20:58:38.084Z,15.51
2018-04-19T21:01:04.015Z,15.50
2018-04-19T21:03:29.875Z,15.43
2018-04-19T21:05:55.772Z,15.37
2018-04-19T21:08:21.837Z,15.38
2018-04-19T21:10:47.704Z,15.36
2018-04-19T21:13:13.600Z,15.35
2018-04-19T21:15:39.519Z,15.30
2018-04-19T21:18:05.399Z,15.26
2018-04-19T21:20:31.415Z,15.21
2018-04-19T21:22:57.423Z,15.15
2018-04-19T21:25:23.291Z,15.13
2018-04-19T21:27:49.175Z,15.10
2018-04-19T21:30:15.140Z,15.04
2018-04-19T21:32:41.483Z,14.99
2018-04-19T21:35:07.604Z,14.96
2018-04-19T21:37:34.867Z,14.91
2018-04-19T21:40:01.287Z,14.86
2018-04-19T21:42:27.292Z,14.82
2018-04-19T21:44:53.335Z,14.78
2018-04-19T21:47:19.567Z,14.74
2018-04-19T21:49:45.849Z,14.68
2018-04-19T21:52:12.357Z,14.65
2018-04-19T21:54:38.260Z,14.62
2018-04-19T21:57:04.635Z,14.56
2018-04-19T21:59:31.119Z,14.52
2018-04-19T22:01:57.522Z,14.48
2018-04-19T22:04:23.389Z,14.43
2018-04-19T22:06:49.417Z,14.38
2018-04-19T22:09:15.437Z,14.35
2018-04-19T22:11:41.295Z,14.32
2018-04-19T22:14:07.237Z,14.31
2018-04-19T22:16:33.113Z,14.28
2018-04-19T22:18:58.973Z,14.23
2018-04-19T22:21:25.022Z,14.20
2018-04-19T22:23:50.880Z,14.18
2018-04-19T22:26:16.752Z,14.14
2018-04-19T22:28:42.987Z,14.11
2018-04-19T22:31:08.864Z,14.07
2018-04-19T22:33:34.916Z,14.04
2018-04-19T22:36:00.825Z,14.01
2018-04-19T22:38:26.694Z,13.97
2018-04-19T22:40:52.555Z,13.96
2018-04-19T22:43:18.495Z,13.93
2018-04-19T22:45:44.512Z,13.90
2018-04-19T22:48:10.388Z,13.88
2018-04-19T22:50:36.307Z,13.84
2018-04-19T22:53:02.179Z,13.82
2018-04-19T22:55:28.039Z,13.78
2018-04-19T22:57:54.083Z,13.74
2018-04-19T23:00:19.951Z,13.71
2018-04-19T23:02:45.866Z,13.66
2018-04-19T23:05:12.768Z,13.63
2018-04-19T23:07:38.636Z,13.58
2018-04-19T23:10:04.651Z,13.56
2018-04-19T23:12:30.573Z,13.53
2018-04-19T23:14:56.441Z,13.52
2018-04-19T23:17:22.300Z,13.49
2018-04-19T23:19:48.372Z,13.46
2018-04-19T23:22:14.428Z,13.40
2018-04-19T23:24:40.300Z,13.35
2018-04-19T23:27:06.231Z,13.30
2018-04-19T23:29:32.124Z,13.26
2018-04-19T23:31:58.003Z,13.21
2018-04-19T23:34:24.046Z,13.18
2018-04-19T23:36:49.947Z,13.15
2018-04-19T23:39:15.848Z,13.10
2018-04-19T23:41:41.775Z,13.05
2018-04-19T23:44:07.630Z,13.02
2018-04-19T23:46:33.631Z,12.98
2018-04-19T23:48:59.575Z,12.96
2018-04-19T23:51:25.436Z,12.92
2018-04-19T23:53:51.308Z,12.87
2018-04-19T23:56:17.236Z,12.87
2018-04-19T23:58:43.267Z,12.84
